sensor_id;sensor_type;location;lat;lon;timestamp;P1;durP1;ratioP1;P2;durP2;ratioP2
9823;SDS011;4951;50.778;7.196;2023-12-29T00:02:07;1.30;;;1.10;;
9823;SDS011;4951;50.778;7.196;2023-12-29T00:08:27;1.73;;;1.27;;
9823;SDS011;4951;50.778;7.196;2023-12-29T00:11:29;1.87;;;1.30;;
9823;SDS011;4951;50.778;7.196;2023-12-29T00:14:39;1.33;;;1.10;;
9823;SDS011;4951;50.778;7.196;2023-12-29T00:17:28;2.17;;;1.30;;
9823;SDS011;4951;50.778;7.196;2023-12-29T00:20:18;3.13;;;1.60;;
9823;SDS011;4951;50.778;7.196;2023-12-29T00:23:09;2.77;;;1.33;;
9823;SDS011;4951;50.778;7.196;2023-12-29T00:25:51;3.00;;;1.40;;
9823;SDS011;4951;50.778;7.196;2023-12-29T00:29:03;2.30;;;1.40;;
9823;SDS011;4951;50.778;7.196;2023-12-29T00:31:51;3.10;;;1.37;;
9823;SDS011;4951;50.778;7.196;2023-12-29T00:34:25;2.37;;;1.40;;
9823;SDS011;4951;50.778;7.196;2023-12-29T00:37:11;3.03;;;1.40;;
9823;SDS011;4951;50.778;7.196;2023-12-29T00:40:13;1.67;;;1.33;;
9823;SDS011;4951;50.778;7.196;2023-12-29T00:42:48;4.30;;;1.53;;
9823;SDS011;4951;50.778;7.196;2023-12-29T00:45:23;2.23;;;1.57;;
9823;SDS011;4951;50.778;7.196;2023-12-29T00:47:54;2.63;;;1.20;;
9823;SDS011;4951;50.778;7.196;2023-12-29T00:50:42;2.70;;;1.57;;
9823;SDS011;4951;50.778;7.196;2023-12-29T00:53:52;3.20;;;1.57;;
9823;SDS011;4951;50.778;7.196;2023-12-29T00:56:32;2.00;;;1.50;;
9823;SDS011;4951;50.778;7.196;2023-12-29T01:02:39;4.63;;;1.90;;
9823;SDS011;4951;50.778;7.196;2023-12-29T01:08:09;1.97;;;1.33;;
9823;SDS011;4951;50.778;7.196;2023-12-29T01:11:12;2.83;;;1.37;;
9823;SDS011;4951;50.778;7.196;2023-12-29T01:14:08;2.37;;;1.50;;
9823;SDS011;4951;50.778;7.196;2023-12-29T01:17:08;4.20;;;1.70;;
9823;SDS011;4951;50.778;7.196;2023-12-29T01:22:52;3.90;;;1.37;;
9823;SDS011;4951;50.778;7.196;2023-12-29T01:25:44;3.67;;;1.80;;
9823;SDS011;4951;50.778;7.196;2023-12-29T01:28:26;3.47;;;1.70;;
9823;SDS011;4951;50.778;7.196;2023-12-29T01:34:41;4.13;;;1.90;;
9823;SDS011;4951;50.778;7.196;2023-12-29T01:38:04;3.03;;;1.67;;
9823;SDS011;4951;50.778;7.196;2023-12-29T01:40:46;3.60;;;1.80;;
9823;SDS011;4951;50.778;7.196;2023-12-29T01:43:31;3.83;;;1.50;;
9823;SDS011;4951;50.778;7.196;2023-12-29T01:46:26;3.30;;;1.70;;
9823;SDS011;4951;50.778;7.196;2023-12-29T01:49:03;3.97;;;1.77;;
9823;SDS011;4951;50.778;7.196;2023-12-29T01:52:06;3.57;;;1.93;;
9823;SDS011;4951;50.778;7.196;2023-12-29T01:54:52;2.63;;;1.63;;
9823;SDS011;4951;50.778;7.196;2023-12-29T01:57:34;4.77;;;1.80;;
9823;SDS011;4951;50.778;7.196;2023-12-29T02:00:29;2.43;;;1.40;;
9823;SDS011;4951;50.778;7.196;2023-12-29T02:03:44;3.63;;;1.87;;
9823;SDS011;4951;50.778;7.196;2023-12-29T02:09:29;3.23;;;1.70;;
9823;SDS011;4951;50.778;7.196;2023-12-29T02:12:02;5.70;;;1.93;;
9823;SDS011;4951;50.778;7.196;2023-12-29T02:14:48;5.20;;;1.90;;
9823;SDS011;4951;50.778;7.196;2023-12-29T02:17:31;3.93;;;2.10;;
9823;SDS011;4951;50.778;7.196;2023-12-29T02:20:34;4.50;;;1.90;;
9823;SDS011;4951;50.778;7.196;2023-12-29T02:23:12;7.40;;;2.03;;
9823;SDS011;4951;50.778;7.196;2023-12-29T02:26:10;6.37;;;2.00;;
9823;SDS011;4951;50.778;7.196;2023-12-29T02:29:01;4.67;;;1.80;;
9823;SDS011;4951;50.778;7.196;2023-12-29T02:32:14;2.63;;;1.70;;
9823;SDS011;4951;50.778;7.196;2023-12-29T02:34:55;4.37;;;1.90;;
9823;SDS011;4951;50.778;7.196;2023-12-29T02:37:30;5.50;;;1.80;;
9823;SDS011;4951;50.778;7.196;2023-12-29T02:39:59;5.83;;;1.80;;
9823;SDS011;4951;50.778;7.196;2023-12-29T02:42:38;4.83;;;1.90;;
9823;SDS011;4951;50.778;7.196;2023-12-29T02:45:20;4.87;;;2.07;;
9823;SDS011;4951;50.778;7.196;2023-12-29T02:48:06;4.50;;;2.17;;
9823;SDS011;4951;50.778;7.196;2023-12-29T02:50:44;4.10;;;1.80;;
9823;SDS011;4951;50.778;7.196;2023-12-29T03:02:44;4.37;;;1.83;;
9823;SDS011;4951;50.778;7.196;2023-12-29T03:06:01;4.87;;;1.77;;
9823;SDS011;4951;50.778;7.196;2023-12-29T03:08:49;5.10;;;1.60;;
9823;SDS011;4951;50.778;7.196;2023-12-29T03:11:32;5.00;;;1.83;;
9823;SDS011;4951;50.778;7.196;2023-12-29T03:14:12;5.30;;;1.80;;
9823;SDS011;4951;50.778;7.196;2023-12-29T03:17:09;6.47;;;1.97;;
9823;SDS011;4951;50.778;7.196;2023-12-29T03:19:47;5.27;;;1.80;;
9823;SDS011;4951;50.778;7.196;2023-12-29T03:22:54;6.20;;;1.77;;
9823;SDS011;4951;50.778;7.196;2023-12-29T03:26:26;3.37;;;1.73;;
9823;SDS011;4951;50.778;7.196;2023-12-29T03:32:23;4.77;;;1.40;;
9823;SDS011;4951;50.778;7.196;2023-12-29T03:35:08;4.00;;;1.60;;
9823;SDS011;4951;50.778;7.196;2023-12-29T03:38:06;4.30;;;1.80;;
9823;SDS011;4951;50.778;7.196;2023-12-29T03:41:04;5.33;;;2.03;;
9823;SDS011;4951;50.778;7.196;2023-12-29T03:43:49;4.77;;;2.00;;
9823;SDS011;4951;50.778;7.196;2023-12-29T03:46:59;4.27;;;1.70;;
9823;SDS011;4951;50.778;7.196;2023-12-29T03:50:03;4.73;;;1.80;;
9823;SDS011;4951;50.778;7.196;2023-12-29T03:56:35;6.53;;;2.30;;
9823;SDS011;4951;50.778;7.196;2023-12-29T04:02:45;6.00;;;2.00;;
9823;SDS011;4951;50.778;7.196;2023-12-29T04:05:52;5.17;;;1.97;;
9823;SDS011;4951;50.778;7.196;2023-12-29T04:08:50;7.23;;;2.10;;
9823;SDS011;4951;50.778;7.196;2023-12-29T04:11:54;4.07;;;1.90;;
9823;SDS011;4951;50.778;7.196;2023-12-29T04:14:26;4.13;;;1.70;;
9823;SDS011;4951;50.778;7.196;2023-12-29T04:17:27;4.57;;;1.80;;
9823;SDS011;4951;50.778;7.196;2023-12-29T04:20:37;4.70;;;1.67;;
9823;SDS011;4951;50.778;7.196;2023-12-29T04:23:20;5.50;;;1.97;;
9823;SDS011;4951;50.778;7.196;2023-12-29T04:26:17;5.73;;;1.97;;
9823;SDS011;4951;50.778;7.196;2023-12-29T04:29:05;4.73;;;1.80;;
9823;SDS011;4951;50.778;7.196;2023-12-29T04:32:05;3.27;;;1.40;;
9823;SDS011;4951;50.778;7.196;2023-12-29T04:34:34;5.63;;;1.50;;
9823;SDS011;4951;50.778;7.196;2023-12-29T04:37:04;3.70;;;1.43;;
9823;SDS011;4951;50.778;7.196;2023-12-29T04:39:42;6.03;;;2.20;;
9823;SDS011;4951;50.778;7.196;2023-12-29T04:43:02;4.80;;;1.63;;
9823;SDS011;4951;50.778;7.196;2023-12-29T04:45:43;5.23;;;1.70;;
9823;SDS011;4951;50.778;7.196;2023-12-29T04:49:04;6.97;;;2.33;;
9823;SDS011;4951;50.778;7.196;2023-12-29T04:51:48;4.23;;;1.87;;
9823;SDS011;4951;50.778;7.196;2023-12-29T04:54:26;3.77;;;1.43;;
9823;SDS011;4951;50.778;7.196;2023-12-29T04:57:11;4.27;;;1.60;;
9823;SDS011;4951;50.778;7.196;2023-12-29T04:59:54;4.03;;;1.90;;
9823;SDS011;4951;50.778;7.196;2023-12-29T05:02:50;6.60;;;1.73;;
9823;SDS011;4951;50.778;7.196;2023-12-29T05:05:26;4.27;;;1.60;;
9823;SDS011;4951;50.778;7.196;2023-12-29T05:08:31;3.87;;;1.80;;
9823;SDS011;4951;50.778;7.196;2023-12-29T05:11:12;6.20;;;1.73;;
9823;SDS011;4951;50.778;7.196;2023-12-29T05:14:01;3.23;;;1.57;;
9823;SDS011;4951;50.778;7.196;2023-12-29T05:16:45;4.53;;;1.73;;
9823;SDS011;4951;50.778;7.196;2023-12-29T05:19:18;3.50;;;1.57;;
9823;SDS011;4951;50.778;7.196;2023-12-29T05:22:05;3.90;;;1.77;;
9823;SDS011;4951;50.778;7.196;2023-12-29T05:24:40;4.70;;;1.90;;
9823;SDS011;4951;50.778;7.196;2023-12-29T05:27:22;3.60;;;1.60;;
9823;SDS011;4951;50.778;7.196;2023-12-29T05:30:07;6.00;;;1.80;;
9823;SDS011;4951;50.778;7.196;2023-12-29T05:32:41;4.20;;;1.60;;
9823;SDS011;4951;50.778;7.196;2023-12-29T05:35:31;6.23;;;1.77;;
9823;SDS011;4951;50.778;7.196;2023-12-29T05:38:20;6.70;;;1.73;;
9823;SDS011;4951;50.778;7.196;2023-12-29T05:40:49;4.57;;;1.67;;
9823;SDS011;4951;50.778;7.196;2023-12-29T05:43:38;3.13;;;1.43;;
9823;SDS011;4951;50.778;7.196;2023-12-29T05:46:13;3.63;;;1.20;;
9823;SDS011;4951;50.778;7.196;2023-12-29T05:48:46;4.80;;;1.43;;
9823;SDS011;4951;50.778;7.196;2023-12-29T05:51:18;3.57;;;1.60;;
9823;SDS011;4951;50.778;7.196;2023-12-29T05:53:48;3.10;;;1.50;;
9823;SDS011;4951;50.778;7.196;2023-12-29T05:56:24;3.20;;;1.50;;
9823;SDS011;4951;50.778;7.196;2023-12-29T05:58:56;4.77;;;1.70;;
9823;SDS011;4951;50.778;7.196;2023-12-29T06:01:40;3.13;;;1.30;;
9823;SDS011;4951;50.778;7.196;2023-12-29T06:04:19;3.23;;;1.60;;
9823;SDS011;4951;50.778;7.196;2023-12-29T06:06:47;4.13;;;1.60;;
9823;SDS011;4951;50.778;7.196;2023-12-29T06:09:31;5.03;;;1.53;;
9823;SDS011;4951;50.778;7.196;2023-12-29T06:12:10;4.47;;;1.57;;
9823;SDS011;4951;50.778;7.196;2023-12-29T06:14:46;2.67;;;1.60;;
9823;SDS011;4951;50.778;7.196;2023-12-29T06:17:39;3.07;;;1.37;;
9823;SDS011;4951;50.778;7.196;2023-12-29T06:20:17;4.60;;;1.60;;
9823;SDS011;4951;50.778;7.196;2023-12-29T06:22:53;3.53;;;1.40;;
9823;SDS011;4951;50.778;7.196;2023-12-29T06:25:27;3.33;;;1.53;;
9823;SDS011;4951;50.778;7.196;2023-12-29T06:28:04;4.07;;;1.53;;
9823;SDS011;4951;50.778;7.196;2023-12-29T06:30:38;5.43;;;1.67;;
9823;SDS011;4951;50.778;7.196;2023-12-29T06:33:45;6.30;;;1.60;;
9823;SDS011;4951;50.778;7.196;2023-12-29T06:38:54;2.23;;;1.40;;
9823;SDS011;4951;50.778;7.196;2023-12-29T06:41:34;4.13;;;1.30;;
9823;SDS011;4951;50.778;7.196;2023-12-29T06:44:05;4.23;;;1.47;;
9823;SDS011;4951;50.778;7.196;2023-12-29T06:46:36;6.63;;;1.60;;
9823;SDS011;4951;50.778;7.196;2023-12-29T06:49:28;3.80;;;1.30;;
9823;SDS011;4951;50.778;7.196;2023-12-29T06:52:06;3.23;;;1.50;;
9823;SDS011;4951;50.778;7.196;2023-12-29T06:54:34;4.47;;;1.30;;
9823;SDS011;4951;50.778;7.196;2023-12-29T06:57:03;4.20;;;1.40;;
9823;SDS011;4951;50.778;7.196;2023-12-29T06:59:43;6.47;;;1.50;;
9823;SDS011;4951;50.778;7.196;2023-12-29T07:02:13;4.20;;;1.60;;
9823;SDS011;4951;50.778;7.196;2023-12-29T07:04:44;3.47;;;1.67;;
9823;SDS011;4951;50.778;7.196;2023-12-29T07:07:16;5.03;;;1.43;;
9823;SDS011;4951;50.778;7.196;2023-12-29T07:09:47;4.83;;;1.37;;
9823;SDS011;4951;50.778;7.196;2023-12-29T07:12:15;1.50;;;1.30;;
9823;SDS011;4951;50.778;7.196;2023-12-29T07:14:48;2.03;;;1.40;;
9823;SDS011;4951;50.778;7.196;2023-12-29T07:17:22;4.67;;;1.53;;
9823;SDS011;4951;50.778;7.196;2023-12-29T07:20:09;2.53;;;1.30;;
9823;SDS011;4951;50.778;7.196;2023-12-29T07:22:45;1.63;;;1.07;;
9823;SDS011;4951;50.778;7.196;2023-12-29T07:25:14;4.93;;;1.70;;
9823;SDS011;4951;50.778;7.196;2023-12-29T07:27:45;2.53;;;1.20;;
9823;SDS011;4951;50.778;7.196;2023-12-29T07:30:42;1.80;;;1.00;;
9823;SDS011;4951;50.778;7.196;2023-12-29T07:33:12;2.70;;;1.40;;
9823;SDS011;4951;50.778;7.196;2023-12-29T07:36:25;2.73;;;1.20;;
9823;SDS011;4951;50.778;7.196;2023-12-29T07:38:59;3.93;;;1.23;;
9823;SDS011;4951;50.778;7.196;2023-12-29T07:41:39;2.47;;;1.37;;
9823;SDS011;4951;50.778;7.196;2023-12-29T07:44:14;2.77;;;1.30;;
9823;SDS011;4951;50.778;7.196;2023-12-29T07:46:52;1.60;;;1.20;;
9823;SDS011;4951;50.778;7.196;2023-12-29T07:49:43;3.10;;;1.50;;
9823;SDS011;4951;50.778;7.196;2023-12-29T07:55:49;4.80;;;1.40;;
9823;SDS011;4951;50.778;7.196;2023-12-29T07:58:25;2.27;;;1.30;;
9823;SDS011;4951;50.778;7.196;2023-12-29T08:01:44;3.40;;;1.53;;
9823;SDS011;4951;50.778;7.196;2023-12-29T08:04:14;3.50;;;1.50;;
9823;SDS011;4951;50.778;7.196;2023-12-29T08:06:50;3.77;;;1.57;;
9823;SDS011;4951;50.778;7.196;2023-12-29T08:09:34;2.80;;;1.73;;
9823;SDS011;4951;50.778;7.196;2023-12-29T08:15:35;1.83;;;1.20;;
9823;SDS011;4951;50.778;7.196;2023-12-29T08:18:18;3.00;;;1.40;;
9823;SDS011;4951;50.778;7.196;2023-12-29T08:20:55;2.57;;;1.33;;
9823;SDS011;4951;50.778;7.196;2023-12-29T08:24:27;2.13;;;1.20;;
9823;SDS011;4951;50.778;7.196;2023-12-29T08:26:58;3.20;;;1.10;;
9823;SDS011;4951;50.778;7.196;2023-12-29T08:29:48;3.50;;;1.30;;
9823;SDS011;4951;50.778;7.196;2023-12-29T08:32:19;1.90;;;1.37;;
9823;SDS011;4951;50.778;7.196;2023-12-29T08:35:34;1.90;;;1.23;;
9823;SDS011;4951;50.778;7.196;2023-12-29T08:38:13;2.17;;;1.20;;
9823;SDS011;4951;50.778;7.196;2023-12-29T08:40:53;1.53;;;1.20;;
9823;SDS011;4951;50.778;7.196;2023-12-29T08:43:25;2.93;;;1.50;;
9823;SDS011;4951;50.778;7.196;2023-12-29T08:45:59;2.13;;;1.20;;
9823;SDS011;4951;50.778;7.196;2023-12-29T08:48:45;4.97;;;1.50;;
9823;SDS011;4951;50.778;7.196;2023-12-29T08:55:22;2.53;;;1.10;;
9823;SDS011;4951;50.778;7.196;2023-12-29T09:00:46;2.10;;;1.40;;
9823;SDS011;4951;50.778;7.196;2023-12-29T09:02:42;4.33;;;1.23;;
9823;SDS011;4951;50.778;7.196;2023-12-29T09:05:29;2.57;;;1.30;;
9823;SDS011;4951;50.778;7.196;2023-12-29T09:08:24;2.27;;;1.37;;
9823;SDS011;4951;50.778;7.196;2023-12-29T09:11:28;3.57;;;1.40;;
9823;SDS011;4951;50.778;7.196;2023-12-29T09:14:42;2.47;;;1.40;;
9823;SDS011;4951;50.778;7.196;2023-12-29T09:17:46;2.73;;;1.47;;
9823;SDS011;4951;50.778;7.196;2023-12-29T09:21:13;2.47;;;1.10;;
9823;SDS011;4951;50.778;7.196;2023-12-29T09:28:54;2.47;;;1.10;;
9823;SDS011;4951;50.778;7.196;2023-12-29T09:31:43;1.30;;;1.00;;
9823;SDS011;4951;50.778;7.196;2023-12-29T09:34:44;2.20;;;1.20;;
9823;SDS011;4951;50.778;7.196;2023-12-29T09:37:28;2.00;;;1.20;;
9823;SDS011;4951;50.778;7.196;2023-12-29T09:40:01;2.87;;;1.07;;
9823;SDS011;4951;50.778;7.196;2023-12-29T09:42:46;1.53;;;0.93;;
9823;SDS011;4951;50.778;7.196;2023-12-29T09:45:24;1.63;;;1.10;;
9823;SDS011;4951;50.778;7.196;2023-12-29T09:48:01;2.87;;;1.23;;
9823;SDS011;4951;50.778;7.196;2023-12-29T09:50:40;1.43;;;0.90;;
9823;SDS011;4951;50.778;7.196;2023-12-29T09:58:08;2.37;;;0.97;;
9823;SDS011;4951;50.778;7.196;2023-12-29T10:00:41;1.30;;;1.07;;
9823;SDS011;4951;50.778;7.196;2023-12-29T10:07:02;1.93;;;1.00;;
9823;SDS011;4951;50.778;7.196;2023-12-29T10:10:16;1.20;;;0.93;;
9823;SDS011;4951;50.778;7.196;2023-12-29T10:13:11;1.07;;;0.93;;
9823;SDS011;4951;50.778;7.196;2023-12-29T10:16:06;1.23;;;0.93;;
9823;SDS011;4951;50.778;7.196;2023-12-29T10:20:06;1.63;;;0.93;;
9823;SDS011;4951;50.778;7.196;2023-12-29T10:23:25;0.93;;;0.90;;
9823;SDS011;4951;50.778;7.196;2023-12-29T10:34:17;1.93;;;1.10;;
9823;SDS011;4951;50.778;7.196;2023-12-29T10:36:57;0.97;;;0.80;;
9823;SDS011;4951;50.778;7.196;2023-12-29T10:39:43;2.00;;;1.00;;
9823;SDS011;4951;50.778;7.196;2023-12-29T11:10:03;1.10;;;0.93;;
9823;SDS011;4951;50.778;7.196;2023-12-29T11:12:39;1.43;;;0.80;;
9823;SDS011;4951;50.778;7.196;2023-12-29T11:16:01;1.23;;;0.93;;
9823;SDS011;4951;50.778;7.196;2023-12-29T11:19:31;0.80;;;0.80;;
9823;SDS011;4951;50.778;7.196;2023-12-29T11:22:10;1.67;;;0.90;;
9823;SDS011;4951;50.778;7.196;2023-12-29T11:33:43;0.80;;;0.77;;
9823;SDS011;4951;50.778;7.196;2023-12-29T11:36:40;1.20;;;0.80;;
9823;SDS011;4951;50.778;7.196;2023-12-29T11:50:40;1.90;;;0.80;;
9823;SDS011;4951;50.778;7.196;2023-12-29T11:54:04;0.60;;;0.60;;
9823;SDS011;4951;50.778;7.196;2023-12-29T12:06:41;0.60;;;0.60;;
9823;SDS011;4951;50.778;7.196;2023-12-29T12:09:51;1.53;;;0.80;;
9823;SDS011;4951;50.778;7.196;2023-12-29T12:13:09;1.70;;;0.83;;
9823;SDS011;4951;50.778;7.196;2023-12-29T12:15:44;0.70;;;0.70;;
9823;SDS011;4951;50.778;7.196;2023-12-29T12:21:43;0.70;;;0.70;;
9823;SDS011;4951;50.778;7.196;2023-12-29T12:25:05;0.73;;;0.70;;
9823;SDS011;4951;50.778;7.196;2023-12-29T12:27:37;0.63;;;0.63;;
9823;SDS011;4951;50.778;7.196;2023-12-29T12:34:17;0.67;;;0.67;;
9823;SDS011;4951;50.778;7.196;2023-12-29T12:37:00;0.60;;;0.60;;
9823;SDS011;4951;50.778;7.196;2023-12-29T12:44:47;0.60;;;0.60;;
9823;SDS011;4951;50.778;7.196;2023-12-29T12:54:29;0.60;;;0.60;;
9823;SDS011;4951;50.778;7.196;2023-12-29T12:57:06;0.90;;;0.80;;
9823;SDS011;4951;50.778;7.196;2023-12-29T12:59:49;0.60;;;0.60;;
9823;SDS011;4951;50.778;7.196;2023-12-29T13:02:47;0.60;;;0.60;;
9823;SDS011;4951;50.778;7.196;2023-12-29T13:05:20;0.80;;;0.80;;
9823;SDS011;4951;50.778;7.196;2023-12-29T13:07:56;0.90;;;0.80;;
9823;SDS011;4951;50.778;7.196;2023-12-29T13:10:35;0.90;;;0.77;;
9823;SDS011;4951;50.778;7.196;2023-12-29T13:13:20;1.60;;;0.70;;
9823;SDS011;4951;50.778;7.196;2023-12-29T13:17:23;1.00;;;0.60;;
9823;SDS011;4951;50.778;7.196;2023-12-29T13:24:04;0.90;;;0.90;;
9823;SDS011;4951;50.778;7.196;2023-12-29T13:27:22;0.90;;;0.90;;
9823;SDS011;4951;50.778;7.196;2023-12-29T13:32:41;0.70;;;0.70;;
9823;SDS011;4951;50.778;7.196;2023-12-29T13:35:30;0.70;;;0.70;;
9823;SDS011;4951;50.778;7.196;2023-12-29T13:38:08;1.37;;;0.80;;
9823;SDS011;4951;50.778;7.196;2023-12-29T13:40:45;0.60;;;0.60;;
9823;SDS011;4951;50.778;7.196;2023-12-29T13:44:25;0.70;;;0.70;;
9823;SDS011;4951;50.778;7.196;2023-12-29T13:48:18;0.60;;;0.60;;
9823;SDS011;4951;50.778;7.196;2023-12-29T13:51:04;0.60;;;0.60;;
9823;SDS011;4951;50.778;7.196;2023-12-29T13:54:39;0.60;;;0.60;;
9823;SDS011;4951;50.778;7.196;2023-12-29T13:57:47;0.60;;;0.60;;
9823;SDS011;4951;50.778;7.196;2023-12-29T14:00:46;0.87;;;0.83;;
9823;SDS011;4951;50.778;7.196;2023-12-29T14:04:16;0.70;;;0.70;;
9823;SDS011;4951;50.778;7.196;2023-12-29T14:09:27;1.43;;;0.73;;
9823;SDS011;4951;50.778;7.196;2023-12-29T14:14:29;0.90;;;0.70;;
9823;SDS011;4951;50.778;7.196;2023-12-29T14:17:32;0.60;;;0.60;;
9823;SDS011;4951;50.778;7.196;2023-12-29T14:21:01;2.17;;;0.80;;
9823;SDS011;4951;50.778;7.196;2023-12-29T14:25:44;0.83;;;0.83;;
9823;SDS011;4951;50.778;7.196;2023-12-29T14:27:15;1.33;;;0.70;;
9823;SDS011;4951;50.778;7.196;2023-12-29T14:29:57;1.27;;;0.80;;
9823;SDS011;4951;50.778;7.196;2023-12-29T14:36:50;0.80;;;0.80;;
9823;SDS011;4951;50.778;7.196;2023-12-29T14:39:20;0.80;;;0.80;;
9823;SDS011;4951;50.778;7.196;2023-12-29T14:42:06;1.03;;;0.70;;
9823;SDS011;4951;50.778;7.196;2023-12-29T14:45:02;0.70;;;0.70;;
9823;SDS011;4951;50.778;7.196;2023-12-29T14:48:09;0.90;;;0.90;;
9823;SDS011;4951;50.778;7.196;2023-12-29T14:55:44;0.90;;;0.80;;
9823;SDS011;4951;50.778;7.196;2023-12-29T14:58:32;1.40;;;0.90;;
9823;SDS011;4951;50.778;7.196;2023-12-29T15:01:04;0.83;;;0.83;;
9823;SDS011;4951;50.778;7.196;2023-12-29T15:03:47;1.00;;;1.00;;
9823;SDS011;4951;50.778;7.196;2023-12-29T15:10:28;1.27;;;1.00;;
9823;SDS011;4951;50.778;7.196;2023-12-29T15:20:10;1.00;;;0.90;;
9823;SDS011;4951;50.778;7.196;2023-12-29T15:23:13;0.90;;;0.90;;
9823;SDS011;4951;50.778;7.196;2023-12-29T15:26:05;1.97;;;1.10;;
9823;SDS011;4951;50.778;7.196;2023-12-29T15:28:53;1.20;;;0.97;;
9823;SDS011;4951;50.778;7.196;2023-12-29T15:34:14;0.90;;;0.90;;
9823;SDS011;4951;50.778;7.196;2023-12-29T15:36:08;1.17;;;0.90;;
9823;SDS011;4951;50.778;7.196;2023-12-29T15:40:09;0.90;;;0.87;;
9823;SDS011;4951;50.778;7.196;2023-12-29T15:44:38;1.07;;;0.90;;
9823;SDS011;4951;50.778;7.196;2023-12-29T15:45:45;1.00;;;0.90;;
9823;SDS011;4951;50.778;7.196;2023-12-29T15:54:45;0.90;;;0.80;;
9823;SDS011;4951;50.778;7.196;2023-12-29T15:57:28;1.03;;;0.90;;
9823;SDS011;4951;50.778;7.196;2023-12-29T16:06:04;1.33;;;0.90;;
9823;SDS011;4951;50.778;7.196;2023-12-29T16:08:02;0.90;;;0.90;;
9823;SDS011;4951;50.778;7.196;2023-12-29T16:14:17;1.57;;;0.80;;
9823;SDS011;4951;50.778;7.196;2023-12-29T16:17:35;1.00;;;0.90;;
9823;SDS011;4951;50.778;7.196;2023-12-29T16:21:34;1.00;;;0.90;;
9823;SDS011;4951;50.778;7.196;2023-12-29T16:24:59;1.13;;;0.90;;
9823;SDS011;4951;50.778;7.196;2023-12-29T16:28:02;0.80;;;0.80;;
9823;SDS011;4951;50.778;7.196;2023-12-29T16:30:38;0.87;;;0.87;;
9823;SDS011;4951;50.778;7.196;2023-12-29T16:34:02;0.90;;;0.90;;
9823;SDS011;4951;50.778;7.196;2023-12-29T16:38:30;1.10;;;0.70;;
9823;SDS011;4951;50.778;7.196;2023-12-29T16:41:43;0.87;;;0.87;;
9823;SDS011;4951;50.778;7.196;2023-12-29T16:46:48;2.27;;;0.93;;
9823;SDS011;4951;50.778;7.196;2023-12-29T16:48:37;0.90;;;0.73;;
9823;SDS011;4951;50.778;7.196;2023-12-29T16:51:07;0.93;;;0.93;;
9823;SDS011;4951;50.778;7.196;2023-12-29T16:54:09;0.90;;;0.90;;
9823;SDS011;4951;50.778;7.196;2023-12-29T16:56:52;1.10;;;1.00;;
9823;SDS011;4951;50.778;7.196;2023-12-29T17:07:35;2.43;;;1.17;;
9823;SDS011;4951;50.778;7.196;2023-12-29T17:10:55;0.90;;;0.90;;
9823;SDS011;4951;50.778;7.196;2023-12-29T17:18:08;1.30;;;1.20;;
9823;SDS011;4951;50.778;7.196;2023-12-29T17:20:46;0.90;;;0.90;;
9823;SDS011;4951;50.778;7.196;2023-12-29T17:23:55;1.10;;;0.80;;
9823;SDS011;4951;50.778;7.196;2023-12-29T17:26:40;1.30;;;1.20;;
9823;SDS011;4951;50.778;7.196;2023-12-29T17:29:26;1.20;;;1.10;;
9823;SDS011;4951;50.778;7.196;2023-12-29T17:32:17;1.17;;;1.00;;
9823;SDS011;4951;50.778;7.196;2023-12-29T17:35:23;1.07;;;1.07;;
9823;SDS011;4951;50.778;7.196;2023-12-29T17:38:50;1.80;;;1.23;;
9823;SDS011;4951;50.778;7.196;2023-12-29T17:45:17;0.93;;;0.93;;
9823;SDS011;4951;50.778;7.196;2023-12-29T17:48:00;1.00;;;0.93;;
9823;SDS011;4951;50.778;7.196;2023-12-29T17:50:36;1.37;;;1.10;;
9823;SDS011;4951;50.778;7.196;2023-12-29T17:53:19;1.20;;;1.10;;
9823;SDS011;4951;50.778;7.196;2023-12-29T17:56:08;0.80;;;0.80;;
9823;SDS011;4951;50.778;7.196;2023-12-29T17:58:56;0.80;;;0.80;;
9823;SDS011;4951;50.778;7.196;2023-12-29T18:01:33;2.10;;;0.90;;
9823;SDS011;4951;50.778;7.196;2023-12-29T18:04:03;1.30;;;1.10;;
9823;SDS011;4951;50.778;7.196;2023-12-29T18:06:41;2.40;;;1.27;;
9823;SDS011;4951;50.778;7.196;2023-12-29T18:09:17;1.63;;;0.90;;
9823;SDS011;4951;50.778;7.196;2023-12-29T18:12:03;1.97;;;1.00;;
9823;SDS011;4951;50.778;7.196;2023-12-29T18:15:06;1.00;;;0.90;;
9823;SDS011;4951;50.778;7.196;2023-12-29T18:17:41;1.40;;;1.00;;
9823;SDS011;4951;50.778;7.196;2023-12-29T18:21:18;1.27;;;1.17;;
9823;SDS011;4951;50.778;7.196;2023-12-29T18:23:11;1.03;;;0.90;;
9823;SDS011;4951;50.778;7.196;2023-12-29T18:25:53;1.73;;;1.10;;
9823;SDS011;4951;50.778;7.196;2023-12-29T18:29:26;2.70;;;1.17;;
9823;SDS011;4951;50.778;7.196;2023-12-29T18:36:15;1.93;;;1.00;;
9823;SDS011;4951;50.778;7.196;2023-12-29T18:39:05;2.57;;;1.20;;
9823;SDS011;4951;50.778;7.196;2023-12-29T18:42:06;2.07;;;1.27;;
9823;SDS011;4951;50.778;7.196;2023-12-29T18:44:39;2.23;;;1.17;;
9823;SDS011;4951;50.778;7.196;2023-12-29T18:47:38;1.60;;;1.30;;
9823;SDS011;4951;50.778;7.196;2023-12-29T18:52:03;2.50;;;1.43;;
9823;SDS011;4951;50.778;7.196;2023-12-29T18:54:17;1.20;;;1.10;;
9823;SDS011;4951;50.778;7.196;2023-12-29T18:57:28;1.27;;;1.00;;
9823;SDS011;4951;50.778;7.196;2023-12-29T19:00:48;3.60;;;1.20;;
9823;SDS011;4951;50.778;7.196;2023-12-29T19:05:26;2.43;;;1.20;;
9823;SDS011;4951;50.778;7.196;2023-12-29T19:06:58;1.93;;;1.10;;
9823;SDS011;4951;50.778;7.196;2023-12-29T19:10:12;2.13;;;1.20;;
9823;SDS011;4951;50.778;7.196;2023-12-29T19:12:42;1.83;;;1.23;;
9823;SDS011;4951;50.778;7.196;2023-12-29T19:15:46;1.43;;;1.20;;
9823;SDS011;4951;50.778;7.196;2023-12-29T19:19:12;3.10;;;1.40;;
9823;SDS011;4951;50.778;7.196;2023-12-29T19:22:13;3.23;;;1.97;;
9823;SDS011;4951;50.778;7.196;2023-12-29T19:25:23;2.43;;;1.40;;
9823;SDS011;4951;50.778;7.196;2023-12-29T19:28:32;2.20;;;1.43;;
9823;SDS011;4951;50.778;7.196;2023-12-29T19:31:07;2.70;;;1.53;;
9823;SDS011;4951;50.778;7.196;2023-12-29T19:37:16;1.63;;;1.30;;
9823;SDS011;4951;50.778;7.196;2023-12-29T19:39:55;2.23;;;1.30;;
9823;SDS011;4951;50.778;7.196;2023-12-29T19:42:45;1.47;;;1.10;;
9823;SDS011;4951;50.778;7.196;2023-12-29T19:45:19;2.30;;;1.33;;
9823;SDS011;4951;50.778;7.196;2023-12-29T19:48:04;1.67;;;1.37;;
9823;SDS011;4951;50.778;7.196;2023-12-29T19:51:29;2.27;;;1.43;;
9823;SDS011;4951;50.778;7.196;2023-12-29T19:54:14;1.83;;;1.13;;
9823;SDS011;4951;50.778;7.196;2023-12-29T19:56:47;3.50;;;1.50;;
9823;SDS011;4951;50.778;7.196;2023-12-29T20:03:05;2.67;;;1.20;;
9823;SDS011;4951;50.778;7.196;2023-12-29T20:05:39;2.67;;;1.47;;
9823;SDS011;4951;50.778;7.196;2023-12-29T20:08:14;3.57;;;1.57;;
9823;SDS011;4951;50.778;7.196;2023-12-29T20:10:55;1.53;;;1.43;;
9823;SDS011;4951;50.778;7.196;2023-12-29T20:13:24;2.63;;;1.40;;
9823;SDS011;4951;50.778;7.196;2023-12-29T20:16:24;2.43;;;1.50;;
9823;SDS011;4951;50.778;7.196;2023-12-29T20:19:01;3.50;;;1.30;;
9823;SDS011;4951;50.778;7.196;2023-12-29T20:22:03;4.80;;;1.90;;
9823;SDS011;4951;50.778;7.196;2023-12-29T20:25:50;1.87;;;1.30;;
9823;SDS011;4951;50.778;7.196;2023-12-29T20:28:38;3.83;;;1.53;;
9823;SDS011;4951;50.778;7.196;2023-12-29T20:31:20;2.93;;;1.50;;
9823;SDS011;4951;50.778;7.196;2023-12-29T20:33:57;5.10;;;1.63;;
9823;SDS011;4951;50.778;7.196;2023-12-29T20:36:44;2.90;;;1.63;;
9823;SDS011;4951;50.778;7.196;2023-12-29T20:39:35;5.63;;;1.73;;
9823;SDS011;4951;50.778;7.196;2023-12-29T20:43:35;2.80;;;1.57;;
9823;SDS011;4951;50.778;7.196;2023-12-29T20:46:21;5.13;;;1.57;;
9823;SDS011;4951;50.778;7.196;2023-12-29T20:48:54;2.67;;;1.10;;
9823;SDS011;4951;50.778;7.196;2023-12-29T20:51:30;2.37;;;1.37;;
9823;SDS011;4951;50.778;7.196;2023-12-29T21:14:37;3.87;;;1.50;;
9823;SDS011;4951;50.778;7.196;2023-12-29T21:25:33;6.37;;;3.17;;
9823;SDS011;4951;50.778;7.196;2023-12-29T21:31:03;6.13;;;1.90;;
9823;SDS011;4951;50.778;7.196;2023-12-29T21:35:02;5.50;;;1.60;;
9823;SDS011;4951;50.778;7.196;2023-12-29T21:37:48;5.90;;;1.73;;
9823;SDS011;4951;50.778;7.196;2023-12-29T21:47:47;5.40;;;2.10;;
9823;SDS011;4951;50.778;7.196;2023-12-29T21:50:52;4.73;;;2.07;;
9823;SDS011;4951;50.778;7.196;2023-12-29T21:53:21;4.20;;;1.87;;
9823;SDS011;4951;50.778;7.196;2023-12-29T21:56:26;6.47;;;2.00;;
9823;SDS011;4951;50.778;7.196;2023-12-29T21:59:35;5.07;;;1.60;;
9823;SDS011;4951;50.778;7.196;2023-12-29T22:02:25;4.30;;;2.13;;
9823;SDS011;4951;50.778;7.196;2023-12-29T22:05:20;5.97;;;2.47;;
9823;SDS011;4951;50.778;7.196;2023-12-29T22:07:52;4.50;;;1.90;;